Time;durP1;ratioP1;P1;durP2;ratioP2;P2;SDS_P1;SDS_P2;PMS_P1;PMS_P2;Temp;Humidity;BMP_temperature;BMP_pressure;BME280_temperature;BME280_humidity;BME280_pressure;Samples;Min_cycle;Max_cycle;Signal;HPM_P1;HPM_P2
2022/03/28 00:01:36;;;;;;;23.00;22.20;;;20.30;62.40;;;;;;5072959;28;20996;-46
2022/03/28 00:04:03;;;;;;;24.60;23.67;;;20.30;62.40;;;;;;5072882;28;20450;-46
2022/03/28 00:06:30;;;;;;;22.30;21.60;;;20.20;62.60;;;;;;5064774;28;20456;-46
2022/03/28 00:08:57;;;;;;;23.13;22.33;;;20.20;62.70;;;;;;5052790;28;20479;-45
2022/03/28 00:11:26;;;;;;;23.83;22.93;;;20.20;62.60;;;;;;5052820;28;20472;-45
2022/03/28 00:13:53;;;;;;;23.00;22.20;;;20.20;62.60;;;;;;5052622;28;20542;-46
2022/03/28 00:16:20;;;;;;;24.13;23.13;;;20.20;62.60;;;;;;5058136;28;20458;-46
2022/03/28 00:18:47;;;;;;;23.93;23.03;;;20.20;62.70;;;;;;5072573;28;20450;-45
2022/03/28 00:21:13;;;;;;;24.30;23.40;;;20.20;62.70;;;;;;5072495;28;20467;-46
2022/03/28 00:23:40;;;;;;;23.30;22.50;;;20.10;62.80;;;;;;5072529;28;20447;-46
2022/03/28 00:26:07;;;;;;;24.20;23.30;;;20.10;62.90;;;;;;5066380;28;20448;-46
2022/03/28 00:28:35;;;;;;;23.43;22.57;;;20.10;63.20;;;;;;5052382;28;20441;-50
2022/03/28 00:31:02;;;;;;;23.50;22.60;;;20.10;63.10;;;;;;5052382;28;20529;-49
2022/03/28 00:33:28;;;;;;;22.93;22.10;;;20.10;63.20;;;;;;5052384;28;20471;-48
2022/03/28 00:35:55;;;;;;;23.23;22.43;;;20.10;63.20;;;;;;5054986;28;20858;-49
2022/03/28 00:38:23;;;;;;;22.70;21.90;;;20.00;63.20;;;;;;5072271;28;20452;-49
2022/03/28 00:40:49;;;;;;;23.30;22.40;;;20.10;63.20;;;;;;5072144;28;20486;-50
2022/03/28 00:43:16;;;;;;;22.13;21.37;;;20.00;63.20;;;;;;5072099;28;20451;-48
2022/03/28 00:45:44;;;;;;;22.23;21.43;;;20.00;63.30;;;;;;5070719;28;20440;-46
2022/03/28 00:48:12;;;;;;;23.03;22.23;;;20.00;63.40;;;;;;5057463;28;20853;-46
2022/03/28 00:50:40;;;;;;;22.87;22.07;;;20.00;63.20;;;;;;5071861;28;20537;-46
2022/03/28 00:53:11;;;;;;;22.70;21.90;;;20.00;63.50;;;;;;5055129;28;20815;-47
2022/03/28 00:55:38;;;;;;;23.03;22.23;;;20.00;63.70;;;;;;5051771;28;20859;-46
2022/03/28 00:58:05;;;;;;;22.60;21.80;;;20.00;63.90;;;;;;5032098;28;20442;-46
2022/03/28 01:00:32;;;;;;;23.33;22.43;;;20.00;63.80;;;;;;5031963;28;20464;-47
2022/03/28 01:03:01;;;;;;;22.90;22.10;;;20.00;63.80;;;;;;5055278;28;20443;-46
2022/03/28 01:05:28;;;;;;;22.30;21.50;;;20.00;63.80;;;;;;5071650;28;20534;-48
2022/03/28 01:07:55;;;;;;;22.70;21.90;;;20.00;63.70;;;;;;5052974;28;20445;-48
2022/03/28 01:10:23;;;;;;;23.40;22.60;;;20.00;63.90;;;;;;5051640;28;20472;-50
2022/03/28 01:12:50;;;;;;;22.80;22.00;;;19.90;63.90;;;;;;5051576;28;20452;-47
2022/03/28 01:15:17;;;;;;;23.67;22.87;;;19.90;63.90;;;;;;5051564;28;20480;-46
2022/03/28 01:20:32;;;;;;;24.20;23.30;;;19.90;64.10;;;;;;5071747;28;20972;-48
2022/03/28 01:23:00;;;;;;;23.10;22.20;;;19.90;64.00;;;;;;5071564;28;20450;-47
2022/03/28 01:25:30;;;;;;;23.00;22.20;;;19.90;64.10;;;;;;5071459;28;20927;-46
2022/03/28 01:27:58;;;;;;;22.80;22.00;;;19.90;64.30;;;;;;5053016;28;20582;-46
2022/03/28 01:30:27;;;;;;;22.13;21.33;;;19.80;64.20;;;;;;5051389;28;20468;-46
2022/03/28 01:32:55;;;;;;;22.10;21.30;;;19.90;64.20;;;;;;5052599;28;20499;-46
2022/03/28 01:35:30;;;;;;;23.10;22.30;;;19.90;64.20;;;;;;5051187;28;20483;-47
2022/03/28 01:37:58;;;;;;;23.27;22.40;;;19.80;64.10;;;;;;5051169;28;20454;-45
2022/03/28 01:40:27;;;;;;;23.67;22.77;;;19.90;64.30;;;;;;5051360;28;20468;-49
2022/03/28 01:42:53;;;;;;;22.50;21.70;;;19.80;64.30;;;;;;5053430;28;20461;-46
2022/03/28 01:45:20;;;;;;;22.37;21.57;;;19.80;64.30;;;;;;5071243;28;20466;-48
2022/03/28 01:47:48;;;;;;;23.20;22.37;;;19.70;64.20;;;;;;5071285;28;20439;-49
2022/03/28 01:50:15;;;;;;;22.00;21.30;;;19.70;64.40;;;;;;5071232;28;20949;-46
2022/03/28 01:52:42;;;;;;;22.90;22.10;;;19.70;64.70;;;;;;5070579;28;20444;-46
2022/03/28 01:55:10;;;;;;;22.80;21.97;;;19.70;64.50;;;;;;5070761;28;20837;-50
2022/03/28 01:57:39;;;;;;;22.80;22.00;;;19.70;64.50;;;;;;5070939;28;20459;-46
2022/03/28 02:00:08;;;;;;;23.57;22.70;;;19.70;64.90;;;;;;5071251;28;20443;-46
2022/03/28 02:02:35;;;;;;;23.80;22.93;;;19.70;64.80;;;;;;5071254;28;20448;-47
2022/03/28 02:05:02;;;;;;;23.27;22.37;;;19.70;64.90;;;;;;5051282;28;20440;-46
2022/03/28 02:07:29;;;;;;;24.17;23.27;;;19.60;64.90;;;;;;5054723;28;20454;-48
2022/03/28 02:09:56;;;;;;;23.23;22.43;;;19.60;65.00;;;;;;5071080;28;20942;-47
2022/03/28 02:12:23;;;;;;;23.17;22.23;;;19.60;65.00;;;;;;5071009;28;20447;-46
2022/03/28 02:14:51;;;;;;;23.17;22.27;;;19.60;65.10;;;;;;5053048;28;20570;-48
2022/03/28 02:17:18;;;;;;;24.27;23.37;;;19.60;65.90;;;;;;5050913;28;20779;-46
2022/03/28 02:19:44;;;;;;;23.60;22.80;;;19.60;65.20;;;;;;5051068;28;20456;-45
2022/03/28 02:22:11;;;;;;;22.70;21.90;;;19.50;65.30;;;;;;5051048;28;20990;-48
2022/03/28 02:24:39;;;;;;;22.77;21.97;;;19.50;65.50;;;;;;5066741;28;20482;-46
2022/03/28 02:27:06;;;;;;;23.33;22.50;;;19.50;65.80;;;;;;5070719;28;20447;-46
2022/03/28 02:29:33;;;;;;;23.40;22.60;;;19.50;65.70;;;;;;5071043;28;20439;-46
2022/03/28 02:32:01;;;;;;;22.80;21.90;;;19.50;65.60;;;;;;5070771;28;20524;-46
2022/03/28 02:34:28;;;;;;;23.50;22.70;;;19.50;65.80;;;;;;5056132;28;20445;-46
2022/03/28 02:36:55;;;;;;;24.00;23.13;;;19.50;65.70;;;;;;5050787;28;20456;-46
2022/03/28 02:39:21;;;;;;;23.40;22.60;;;19.50;65.70;;;;;;5050862;28;20440;-46
2022/03/28 02:41:48;;;;;;;23.20;22.30;;;19.50;65.60;;;;;;5050616;28;20468;-46
2022/03/28 02:44:17;;;;;;;23.30;22.50;;;19.50;65.70;;;;;;5063104;28;20505;-51
2022/03/28 02:46:44;;;;;;;24.07;23.17;;;19.40;65.90;;;;;;5070549;28;20490;-46
2022/03/28 02:49:12;;;;;;;24.20;23.30;;;19.40;66.00;;;;;;5071426;28;20451;-46
2022/03/28 02:51:39;;;;;;;23.83;22.93;;;19.40;65.80;;;;;;5074145;28;20506;-46
2022/03/28 02:54:06;;;;;;;23.83;23.03;;;19.40;65.80;;;;;;5072501;28;20509;-47
2022/03/28 02:56:33;;;;;;;24.30;23.40;;;19.40;65.90;;;;;;5073994;28;20842;-46
2022/03/28 02:59:00;;;;;;;23.70;22.90;;;19.40;66.00;;;;;;5074235;28;20447;-46
2022/03/28 03:01:27;;;;;;;25.10;24.10;;;19.30;66.00;;;;;;5072318;28;21020;-46
2022/03/28 03:03:53;;;;;;;23.73;22.90;;;19.30;66.30;;;;;;5074067;28;20443;-46
2022/03/28 03:06:21;;;;;;;23.87;23.07;;;19.30;66.40;;;;;;5068170;28;20445;-46
2022/03/28 03:08:50;;;;;;;24.50;23.60;;;19.20;66.60;;;;;;5053940;28;20440;-46
2022/03/28 03:11:17;;;;;;;23.90;23.07;;;19.20;66.60;;;;;;5054003;28;20468;-46
2022/03/28 03:13:43;;;;;;;24.10;23.20;;;19.20;66.50;;;;;;5073948;28;20463;-46
2022/03/28 03:16:10;;;;;;;24.10;23.30;;;19.30;66.50;;;;;;5073582;28;21010;-46
2022/03/28 03:18:37;;;;;;;25.27;24.27;;;19.20;66.60;;;;;;5073902;28;20447;-50
2022/03/28 03:21:04;;;;;;;24.10;23.20;;;19.20;66.40;;;;;;5073647;28;20470;-46
2022/03/28 03:23:32;;;;;;;23.90;23.10;;;19.30;66.20;;;;;;5055108;28;20448;-47
2022/03/28 03:25:58;;;;;;;24.00;23.10;;;19.30;66.00;;;;;;5053419;28;20455;-48
2022/03/28 03:28:25;;;;;;;25.70;24.77;;;19.30;67.10;;;;;;5053638;28;20444;-49
2022/03/28 03:30:52;;;;;;;23.57;22.67;;;19.20;66.30;;;;;;5053457;28;20508;-51
2022/03/28 03:33:19;;;;;;;25.03;24.13;;;19.20;66.50;;;;;;5069818;28;20455;-46
2022/03/28 03:35:45;;;;;;;23.93;23.13;;;19.20;66.50;;;;;;5073229;28;20506;-46
2022/03/28 03:38:12;;;;;;;24.53;23.63;;;19.20;66.40;;;;;;5073493;28;20446;-46
2022/03/28 03:40:40;;;;;;;24.07;23.17;;;19.20;66.60;;;;;;5073351;28;20463;-46
2022/03/28 03:43:07;;;;;;;25.67;24.67;;;19.20;66.70;;;;;;5058678;28;20948;-47
2022/03/28 03:45:34;;;;;;;24.67;23.77;;;19.10;66.80;;;;;;5053226;28;20471;-47
2022/03/28 03:48:01;;;;;;;24.43;23.53;;;19.10;66.90;;;;;;5053178;28;20456;-47
2022/03/28 03:50:28;;;;;;;25.70;24.67;;;19.10;67.10;;;;;;5053075;28;20485;-47
2022/03/28 03:52:55;;;;;;;23.70;22.80;;;19.10;66.90;;;;;;5065694;28;20447;-46
2022/03/28 03:55:21;;;;;;;24.70;23.70;;;19.10;66.90;;;;;;5072834;28;20475;-50
2022/03/28 03:57:50;;;;;;;25.60;24.60;;;19.10;67.00;;;;;;5073053;28;20458;-51
2022/03/28 04:00:17;;;;;;;26.67;25.57;;;19.10;66.90;;;;;;5073009;28;20832;-47
2022/03/28 04:02:44;;;;;;;25.60;24.70;;;19.10;67.00;;;;;;5061686;28;20459;-49
2022/03/28 04:05:11;;;;;;;24.87;23.87;;;19.10;67.00;;;;;;5053057;28;20499;-49
2022/03/28 04:07:38;;;;;;;26.20;25.20;;;19.10;67.10;;;;;;5052778;28;20455;-48
2022/03/28 04:10:06;;;;;;;24.73;23.70;;;19.00;67.40;;;;;;5052682;28;20445;-47
2022/03/28 04:12:33;;;;;;;26.03;25.13;;;19.00;67.40;;;;;;5061754;28;20459;-47
2022/03/28 04:15:02;;;;;;;26.97;25.93;;;19.00;67.70;;;;;;5072611;28;20505;-47
2022/03/28 04:17:30;;;;;;;25.80;24.80;;;19.00;67.80;;;;;;5072515;28;20504;-48
2022/03/28 04:19:57;;;;;;;25.10;24.20;;;19.00;67.80;;;;;;5070893;28;20446;-46
2022/03/28 04:22:24;;;;;;;24.83;23.93;;;19.00;67.80;;;;;;5052506;28;20440;-47
2022/03/28 04:24:51;;;;;;;24.60;23.60;;;18.90;67.70;;;;;;5052482;28;20543;-47
2022/03/28 04:27:18;;;;;;;24.50;23.50;;;18.90;67.90;;;;;;5052298;28;20448;-46
2022/03/28 04:29:45;;;;;;;23.13;22.23;;;18.90;68.10;;;;;;5052400;28;20440;-46
2022/03/28 04:32:13;;;;;;;25.00;24.00;;;18.90;68.10;;;;;;5059172;28;20815;-48
2022/03/28 04:34:40;;;;;;;25.50;24.60;;;18.90;67.80;;;;;;5072360;28;20457;-47
2022/03/28 04:37:06;;;;;;;25.67;24.67;;;19.00;67.90;;;;;;5071956;28;20483;-47
2022/03/28 04:39:33;;;;;;;25.90;24.90;;;18.90;67.90;;;;;;5072228;28;20443;-47
2022/03/28 04:42:00;;;;;;;24.37;23.37;;;18.90;67.90;;;;;;5054038;28;20465;-48
2022/03/28 04:44:26;;;;;;;24.83;23.93;;;18.80;68.00;;;;;;5052203;28;20447;-47
2022/03/28 04:46:53;;;;;;;24.73;23.80;;;18.90;68.20;;;;;;5058715;28;20447;-47
2022/03/28 04:49:22;;;;;;;25.63;24.63;;;18.90;68.20;;;;;;5071938;28;20443;-48
2022/03/28 04:51:48;;;;;;;25.93;24.93;;;18.90;68.20;;;;;;5071786;28;20475;-48
2022/03/28 04:54:15;;;;;;;25.70;24.73;;;18.90;68.30;;;;;;5071812;28;20462;-46
2022/03/28 04:56:43;;;;;;;26.33;25.33;;;18.90;69.10;;;;;;5064331;28;20476;-46
2022/03/28 04:59:10;;;;;;;25.70;24.80;;;18.90;69.40;;;;;;5052051;28;20483;-46
2022/03/28 05:01:37;;;;;;;27.50;26.50;;;18.80;70.20;;;;;;5051850;28;20464;-47
2022/03/28 05:04:03;;;;;;;24.80;23.80;;;18.80;71.10;;;;;;5051904;28;20452;-46
2022/03/28 05:06:32;;;;;;;27.10;26.10;;;18.80;70.20;;;;;;5070440;28;20443;-46
2022/03/28 05:08:58;;;;;;;27.40;26.40;;;18.90;69.70;;;;;;5071731;28;20470;-48
2022/03/28 05:11:25;;;;;;;26.03;24.90;;;18.80;69.80;;;;;;5071385;28;20471;-46
2022/03/28 05:13:52;;;;;;;26.90;25.90;;;18.80;69.70;;;;;;5071415;28;20451;-46
2022/03/28 05:16:19;;;;;;;27.70;26.60;;;18.80;69.00;;;;;;5054689;28;20484;-46
2022/03/28 05:18:46;;;;;;;25.87;24.97;;;18.90;68.80;;;;;;5071601;28;20872;-46
2022/03/28 05:21:13;;;;;;;27.30;26.10;;;18.90;68.20;;;;;;5071399;28;20850;-46
2022/03/28 05:23:41;;;;;;;27.57;26.57;;;18.90;68.30;;;;;;5071571;28;20447;-46
2022/03/28 05:26:07;;;;;;;26.50;25.50;;;18.90;68.10;;;;;;5069695;28;20448;-46
2022/03/28 05:28:34;;;;;;;27.50;26.30;;;18.90;68.10;;;;;;5051716;28;20451;-46
2022/03/28 05:31:01;;;;;;;28.73;27.60;;;18.90;68.10;;;;;;5051402;28;20468;-47
2022/03/28 05:33:28;;;;;;;27.27;26.27;;;18.90;67.70;;;;;;5051486;28;20445;-46
2022/03/28 05:35:55;;;;;;;27.87;26.87;;;18.90;67.60;;;;;;5064674;28;20582;-46
2022/03/28 05:38:22;;;;;;;28.43;27.33;;;18.80;67.60;;;;;;5071321;28;20448;-47
2022/03/28 05:40:51;;;;;;;25.63;24.73;;;18.80;67.50;;;;;;5071260;28;20470;-50
2022/03/28 05:43:17;;;;;;;26.97;25.97;;;18.80;67.50;;;;;;5071426;28;20957;-46
2022/03/28 05:45:44;;;;;;;28.03;27.03;;;18.80;67.40;;;;;;5058994;28;20506;-46
2022/03/28 05:48:11;;;;;;;27.77;26.77;;;18.90;67.30;;;;;;5067167;28;20446;-46
2022/03/28 05:50:38;;;;;;;27.17;26.17;;;18.90;67.20;;;;;;5095637;22;20459;-50
2022/03/28 05:53:05;;;;;;;27.77;26.67;;;18.90;67.20;;;;;;5080734;28;20442;-48
2022/03/28 05:55:32;;;;;;;27.83;26.83;;;18.90;66.90;;;;;;5080505;28;20806;-49
2022/03/28 05:58:01;;;;;;;28.60;27.40;;;19.00;66.70;;;;;;5071439;28;20455;-51
2022/03/28 06:00:27;;;;;;;27.67;26.67;;;18.90;66.70;;;;;;5069509;28;20497;-48
2022/03/28 06:02:55;;;;;;;27.10;26.10;;;18.90;66.80;;;;;;5051255;28;20445;-48
2022/03/28 06:05:21;;;;;;;27.53;26.53;;;18.90;66.70;;;;;;5050514;28;20483;-48
2022/03/28 06:07:48;;;;;;;25.50;24.50;;;18.90;66.50;;;;;;5050969;28;20436;-49
2022/03/28 06:10:16;;;;;;;28.30;27.20;;;18.90;66.20;;;;;;5051239;28;20444;-49
2022/03/28 06:12:43;;;;;;;27.07;25.83;;;18.90;66.30;;;;;;5051074;28;20455;-49
2022/03/28 06:15:12;;;;;;;27.67;26.67;;;19.00;66.00;;;;;;5050873;28;20444;-49
2022/03/28 06:17:39;;;;;;;27.70;26.60;;;19.00;65.60;;;;;;5050799;28;20491;-50
2022/03/28 06:20:07;;;;;;;27.67;26.53;;;19.10;65.30;;;;;;5050865;28;20815;-50
2022/03/28 06:22:35;;;;;;;27.80;26.80;;;19.00;65.20;;;;;;5050715;28;20479;-49
2022/03/28 06:25:02;;;;;;;26.00;24.70;;;18.90;65.40;;;;;;5053088;28;20449;-49
2022/03/28 06:27:29;;;;;;;27.30;26.33;;;18.90;65.50;;;;;;5054572;28;20440;-49
2022/03/28 06:29:55;;;;;;;27.67;26.57;;;19.00;65.40;;;;;;5054835;28;20957;-50
2022/03/28 06:32:23;;;;;;;27.20;26.00;;;18.90;65.40;;;;;;5054280;28;20468;-48
2022/03/28 06:34:52;;;;;;;27.40;26.33;;;19.00;65.20;;;;;;5054665;28;20448;-49
2022/03/28 06:37:22;;;;;;;27.83;26.73;;;19.10;65.80;;;;;;5054358;28;20496;-49
2022/03/28 06:39:49;;;;;;;29.37;28.17;;;19.00;65.00;;;;;;5054722;28;20452;-49
2022/03/28 06:42:16;;;;;;;27.60;26.47;;;19.00;64.90;;;;;;5054371;28;20475;-49
2022/03/28 06:44:43;;;;;;;30.23;28.73;;;19.00;65.60;;;;;;5053987;28;20475;-50
2022/03/28 06:47:10;;;;;;;28.60;27.50;;;18.90;67.00;;;;;;5054361;28;20451;-51
2022/03/28 06:49:38;;;;;;;27.60;26.40;;;18.90;68.10;;;;;;5054305;28;20537;-51
2022/03/28 06:52:05;;;;;;;29.00;27.90;;;19.00;67.80;;;;;;5054163;28;20866;-49
2022/03/28 06:54:33;;;;;;;28.60;27.50;;;19.00;68.50;;;;;;5054023;28;20455;-49
2022/03/28 06:57:00;;;;;;;29.10;28.00;;;18.90;69.30;;;;;;5053984;28;21033;-49
2022/03/28 06:59:27;;;;;;;30.00;28.70;;;18.90;69.00;;;;;;5054329;28;20483;-49
2022/03/28 07:01:54;;;;;;;28.57;27.47;;;19.00;68.50;;;;;;5054273;28;20827;-51
2022/03/28 07:04:21;;;;;;;27.90;26.80;;;19.00;68.10;;;;;;5053661;28;20474;-50
2022/03/28 07:06:50;;;;;;;28.27;27.17;;;19.10;68.40;;;;;;5053980;28;20960;-50
2022/03/28 07:09:17;;;;;;;27.10;26.00;;;19.20;68.10;;;;;;5054050;28;20527;-52
2022/03/28 07:11:45;;;;;;;30.40;29.20;;;19.20;68.30;;;;;;5053665;28;20475;-51
2022/03/28 07:14:12;;;;;;;29.43;28.00;;;19.20;68.50;;;;;;5054115;28;20831;-50
2022/03/28 07:16:39;;;;;;;30.30;28.90;;;19.20;68.60;;;;;;5053795;28;20480;-49
2022/03/28 07:19:06;;;;;;;27.90;26.80;;;19.20;68.40;;;;;;5054085;28;20441;-52
2022/03/28 07:21:33;;;;;;;29.70;28.40;;;19.20;70.60;;;;;;5053739;28;20460;-49
2022/03/28 07:24:01;;;;;;;30.17;28.77;;;19.20;72.60;;;;;;5053725;28;20472;-50
2022/03/28 07:26:28;;;;;;;27.80;26.60;;;19.20;73.60;;;;;;5053408;28;20441;-50
2022/03/28 07:28:58;;;;;;;28.63;27.43;;;19.20;74.40;;;;;;5053850;28;20923;-54
2022/03/28 07:31:25;;;;;;;29.17;27.87;;;19.20;75.50;;;;;;5053228;28;20472;-51
2022/03/28 07:33:51;;;;;;;28.50;27.20;;;19.20;75.10;;;;;;5053593;28;20451;-47
2022/03/28 07:36:19;;;;;;;30.73;29.27;;;19.20;75.70;;;;;;5052846;28;21005;-49
2022/03/28 07:38:46;;;;;;;28.63;27.43;;;19.30;76.20;;;;;;5053517;28;20455;-50
2022/03/28 07:41:14;;;;;;;30.70;29.43;;;19.30;76.10;;;;;;5052985;28;20468;-51
2022/03/28 07:43:41;;;;;;;27.23;25.93;;;19.30;76.30;;;;;;5052885;28;20451;-52
2022/03/28 07:46:10;;;;;;;30.07;28.87;;;19.30;76.40;;;;;;5053027;28;20471;-50
2022/03/28 07:48:37;;;;;;;28.30;27.20;;;19.40;76.70;;;;;;5053172;28;20852;-51
2022/03/28 07:51:04;;;;;;;30.47;29.00;;;19.30;76.90;;;;;;5052822;28;20480;-50
2022/03/28 07:53:32;;;;;;;30.30;28.90;;;19.40;76.90;;;;;;5053336;28;20830;-51
2022/03/28 07:55:59;;;;;;;29.33;28.13;;;19.40;75.70;;;;;;5053241;28;20454;-50
2022/03/28 07:58:27;;;;;;;30.07;28.77;;;19.40;75.00;;;;;;5053060;28;20470;-50
2022/03/28 08:00:54;;;;;;;28.90;27.70;;;19.40;74.20;;;;;;5052966;28;20468;-52
2022/03/28 08:03:20;;;;;;;30.50;29.20;;;19.40;73.70;;;;;;5053051;28;20448;-51
2022/03/28 08:05:47;;;;;;;29.53;28.23;;;19.50;73.30;;;;;;5052800;28;20452;-52
2022/03/28 08:08:14;;;;;;;29.93;28.73;;;19.50;72.70;;;;;;5052933;28;21001;-49
2022/03/28 08:10:41;;;;;;;28.23;27.13;;;19.60;72.00;;;;;;5052546;28;20464;-50
2022/03/28 08:13:08;;;;;;;28.73;27.37;;;19.50;73.20;;;;;;5052822;28;20535;-50
2022/03/28 08:15:36;;;;;;;29.10;27.90;;;19.40;74.60;;;;;;5052656;28;20510;-51
2022/03/28 08:18:03;;;;;;;28.33;27.23;;;19.50;75.70;;;;;;5052705;28;20499;-50
2022/03/28 08:20:31;;;;;;;28.70;27.60;;;19.50;76.10;;;;;;5052453;28;20820;-51
2022/03/28 08:22:59;;;;;;;27.37;26.17;;;19.50;76.60;;;;;;5052643;28;20444;-50
2022/03/28 08:25:26;;;;;;;28.93;27.63;;;19.60;77.00;;;;;;5052486;28;20826;-51
2022/03/28 08:27:53;;;;;;;28.40;27.20;;;19.60;77.30;;;;;;5052578;28;20440;-50
2022/03/28 08:30:20;;;;;;;28.27;27.17;;;19.50;78.00;;;;;;5052182;28;20460;-50
2022/03/28 08:32:48;;;;;;;28.53;27.33;;;19.60;78.40;;;;;;5052504;28;20448;-50
2022/03/28 08:35:15;;;;;;;30.87;29.57;;;19.50;79.00;;;;;;5052467;28;20447;-50
2022/03/28 08:37:42;;;;;;;28.90;27.70;;;19.60;79.10;;;;;;5052260;28;20479;-50
2022/03/28 08:40:09;;;;;;;28.43;27.23;;;19.60;78.80;;;;;;5052001;28;20519;-50
2022/03/28 08:42:36;;;;;;;29.20;28.13;;;19.60;79.00;;;;;;5052215;28;20464;-50
2022/03/28 08:45:03;;;;;;;29.60;28.40;;;19.70;80.10;;;;;;5052255;28;20452;-51
2022/03/28 08:47:32;;;;;;;31.30;30.00;;;19.70;79.20;;;;;;5048931;28;20797;-49
2022/03/28 08:50:00;;;;;;;32.40;31.00;;;19.80;79.20;;;;;;5052163;28;20455;-50
2022/03/28 08:52:27;;;;;;;28.77;27.67;;;19.70;79.10;;;;;;5051903;28;20480;-50
2022/03/28 08:54:54;;;;;;;29.57;28.27;;;19.80;79.30;;;;;;5052187;28;20448;-50
2022/03/28 08:57:20;;;;;;;30.00;28.80;;;19.90;79.00;;;;;;5051467;28;20480;-54
2022/03/28 08:59:47;;;;;;;29.50;28.10;;;19.80;78.80;;;;;;5051856;28;20448;-52
2022/03/28 09:02:31;;;;;;;29.33;28.23;;;19.80;78.00;;;;;;5052270;28;20460;-50
2022/03/28 09:05:00;;;;;;;28.37;27.17;;;19.90;77.90;;;;;;5052102;28;20525;-51
2022/03/28 09:07:27;;;;;;;28.33;27.23;;;19.90;77.90;;;;;;5051270;28;20819;-52
2022/03/28 09:09:58;;;;;;;31.40;29.80;;;19.90;77.10;;;;;;5051660;28;20445;-52
2022/03/28 09:12:25;;;;;;;30.17;28.87;;;20.00;76.10;;;;;;5051732;28;20464;-59
2022/03/28 09:14:57;;;;;;;33.73;31.77;;;20.00;75.30;;;;;;5051722;28;20445;-49
2022/03/28 09:17:25;;;;;;;43.93;40.97;;;20.10;74.70;;;;;;5051203;28;20889;-49
2022/03/28 09:19:54;;;;;;;41.47;38.83;;;20.00;70.10;;;;;;5051759;28;20452;-52
2022/03/28 09:22:25;;;;;;;47.10;44.00;;;19.80;71.00;;;;;;5051597;28;20556;-48
2022/03/28 09:24:53;;;;;;;37.17;34.83;;;19.70;71.20;;;;;;5051655;28;20448;-50
2022/03/28 09:27:22;;;;;;;34.90;33.07;;;19.70;72.70;;;;;;5051147;28;20849;-49
2022/03/28 09:30:01;;;;;;;43.57;40.77;;;19.90;73.10;;;;;;5051633;28;20498;-49
2022/03/28 09:32:29;;;;;;;33.73;31.93;;;20.00;72.50;;;;;;5051464;28;20468;-49
2022/03/28 09:35:06;;;;;;;36.40;34.30;;;20.00;73.70;;;;;;5051607;28;20444;-50
2022/03/28 09:38:01;;;;;;;40.23;37.63;;;20.20;73.70;;;;;;5051174;28;20475;-49
2022/03/28 09:40:34;;;;;;;40.47;37.97;;;20.20;73.30;;;;;;5051638;28;20475;-48
2022/03/28 09:43:03;;;;;;;48.90;45.33;;;20.30;72.30;;;;;;5051692;28;20483;-50
2022/03/28 09:45:32;;;;;;;47.27;44.00;;;20.30;70.90;;;;;;5051215;28;20820;-49
2022/03/28 09:48:01;;;;;;;44.63;41.70;;;20.30;69.90;;;;;;5051314;28;20441;-49
2022/03/28 09:50:29;;;;;;;50.63;46.83;;;20.30;69.20;;;;;;5051100;28;20525;-49
2022/03/28 09:52:56;;;;;;;46.10;42.83;;;20.20;66.40;;;;;;5051518;28;20819;-53
2022/03/28 09:55:24;;;;;;;47.40;44.00;;;20.20;66.50;;;;;;5050926;28;20444;-51
2022/03/28 09:57:51;;;;;;;37.40;35.17;;;20.20;66.20;;;;;;5051531;28;20480;-49
2022/03/28 10:00:19;;;;;;;47.20;43.57;;;20.30;67.70;;;;;;5055571;28;20535;-50
2022/03/28 10:02:47;;;;;;;47.30;42.97;;;20.30;66.70;;;;;;5055441;28;20819;-52
2022/03/28 10:05:14;;;;;;;46.87;43.47;;;20.20;64.90;;;;;;5055229;28;20444;-50
2022/03/28 10:07:41;;;;;;;43.20;40.40;;;20.20;65.90;;;;;;5055280;28;20449;-50
2022/03/28 10:10:09;;;;;;;45.40;42.20;;;20.20;66.70;;;;;;5055282;28;21031;-49
2022/03/28 10:12:38;;;;;;;37.90;35.63;;;20.30;66.40;;;;;;5055112;28;20975;-49
2022/03/28 10:15:06;;;;;;;49.20;45.40;;;20.20;65.90;;;;;;5054787;28;20444;-50
2022/03/28 10:17:33;;;;;;;42.87;39.93;;;20.30;64.70;;;;;;5054730;28;20480;-52
2022/03/28 10:20:02;;;;;;;40.30;37.40;;;20.30;66.00;;;;;;5054879;28;20456;-50
2022/03/28 10:22:32;;;;;;;43.57;40.57;;;20.40;65.80;;;;;;5034895;28;21015;-51
2022/03/28 10:25:05;;;;;;;42.07;39.07;;;20.40;63.70;;;;;;5039202;28;20445;-51
2022/03/28 10:27:33;;;;;;;45.93;42.73;;;20.40;62.80;;;;;;5054530;28;20440;-51
2022/03/28 10:30:16;;;;;;;45.50;42.20;;;20.40;61.60;;;;;;5037116;28;20880;-52
2022/03/28 10:32:43;;;;;;;45.97;42.90;;;20.40;62.40;;;;;;5054791;28;20435;-48
2022/03/28 10:35:13;;;;;;;48.47;45.00;;;20.40;61.80;;;;;;5054595;28;20531;-49
2022/03/28 10:37:43;;;;;;;40.10;37.73;;;20.40;61.60;;;;;;5054914;28;20487;-55
2022/03/28 10:40:22;;;;;;;39.27;37.07;;;20.40;62.00;;;;;;5056364;28;20981;-52
2022/03/28 10:42:52;;;;;;;38.87;36.57;;;20.40;63.00;;;;;;5055627;28;20510;-53
2022/03/28 10:45:21;;;;;;;36.50;34.60;;;20.40;63.50;;;;;;5055097;28;20461;-53
2022/03/28 10:47:51;;;;;;;34.30;32.40;;;20.50;64.40;;;;;;5055993;28;20487;-54
2022/03/28 10:50:21;;;;;;;32.40;30.70;;;20.60;64.70;;;;;;5056185;28;20505;-53
2022/03/28 10:53:13;;;;;;;31.87;30.27;;;20.60;64.90;;;;;;5055435;28;20947;-56
2022/03/28 10:55:45;;;;;;;32.90;31.20;;;20.70;64.70;;;;;;5057259;28;20455;-53
2022/03/28 10:58:14;;;;;;;33.70;32.10;;;20.80;65.20;;;;;;5054870;28;20484;-51
2022/03/28 11:01:17;;;;;;;31.23;29.60;;;20.80;65.00;;;;;;5055598;28;20471;-55
2022/03/28 11:03:46;;;;;;;34.90;32.90;;;20.90;65.10;;;;;;5054967;28;20818;-54
2022/03/28 11:06:13;;;;;;;33.00;31.40;;;21.00;64.60;;;;;;5054695;28;20440;-53
2022/03/28 11:08:42;;;;;;;32.50;31.00;;;21.00;64.50;;;;;;5055064;28;20609;-54
2022/03/28 11:11:18;;;;;;;30.92;29.42;;;21.10;64.00;;;;;;5052848;28;20440;-55
2022/03/28 11:13:56;;;;;;;31.33;29.93;;;21.20;63.40;;;;;;5053634;28;20621;-59
2022/03/28 11:16:40;;;;;;;33.47;31.60;;;21.30;62.30;;;;;;5053481;28;20478;-54
2022/03/28 11:19:29;;;;;;;32.27;30.73;;;21.50;62.00;;;;;;5053926;28;20823;-56
2022/03/28 11:22:00;;;;;;;32.60;31.00;;;21.60;62.00;;;;;;5053826;28;20468;-57
2022/03/28 11:24:49;;;;;;;33.70;31.80;;;21.70;61.30;;;;;;5053797;28;20448;-53
2022/03/28 11:27:17;;;;;;;33.87;32.27;;;21.80;60.80;;;;;;5053668;28;20872;-50
2022/03/28 11:29:45;;;;;;;36.43;34.53;;;21.90;60.20;;;;;;5053719;28;20447;-61
2022/03/28 11:32:15;;;;;;;37.40;35.30;;;22.10;59.90;;;;;;5053595;28;20555;-53
2022/03/28 11:34:51;;;;;;;36.20;34.40;;;22.20;59.70;;;;;;5053471;28;20502;-55
2022/03/28 11:37:20;;;;;;;36.93;34.93;;;22.40;59.10;;;;;;5053474;28;20570;-54
2022/03/28 11:39:56;;;;;;;36.17;34.37;;;22.60;58.60;;;;;;5053518;28;20502;-58
2022/03/28 11:42:24;;;;;;;36.73;34.87;;;22.90;57.60;;;;;;5053353;28;20491;-59
2022/03/28 11:44:51;;;;;;;37.13;35.13;;;23.70;56.20;;;;;;5053308;28;20452;-54
2022/03/28 11:47:21;;;;;;;36.97;34.97;;;24.80;53.30;;;;;;5053150;28;20450;-53
2022/03/28 11:49:56;;;;;;;36.07;34.10;;;25.80;50.20;;;;;;5053236;28;20444;-54
2022/03/28 11:52:24;;;;;;;32.47;30.75;;;26.60;47.40;;;;;;5052640;28;20432;-52
2022/03/28 11:54:51;;;;;;;36.03;34.27;;;27.20;45.80;;;;;;5053236;28;20198;-65
2022/03/28 12:00:16;;;;;;;35.63;33.90;;;28.40;42.70;;;;;;5053261;28;20443;-56
2022/03/28 12:02:55;;;;;;;38.13;36.17;;;28.80;41.50;;;;;;5052825;28;20444;-57
2022/03/28 12:05:30;;;;;;;31.67;30.17;;;29.10;40.50;;;;;;5052197;28;20444;-54
2022/03/28 12:07:58;;;;;;;36.80;35.00;;;29.40;40.10;;;;;;5053247;28;20201;-54
2022/03/28 12:10:26;;;;;;;36.03;34.30;;;29.70;39.40;;;;;;5052856;28;20455;-55
2022/03/28 12:12:53;;;;;;;36.70;34.90;;;29.90;38.80;;;;;;5052317;28;20467;-54
2022/03/28 12:15:28;;;;;;;36.63;34.93;;;30.20;38.30;;;;;;5052683;28;20455;-57
2022/03/28 12:17:58;;;;;;;31.90;30.30;;;30.40;37.70;;;;;;5052207;28;20502;-53
2022/03/28 12:20:28;;;;;;;34.80;33.30;;;30.60;37.50;;;;;;5052727;28;20292;-54
2022/03/28 12:22:55;;;;;;;34.40;32.90;;;30.70;37.10;;;;;;5052336;28;20454;-59
2022/03/28 12:25:27;;;;;;;34.50;32.80;;;30.90;36.70;;;;;;5052666;28;20799;-51
2022/03/28 12:27:55;;;;;;;32.73;31.27;;;31.00;36.60;;;;;;5052520;28;20451;-47
2022/03/28 12:30:29;;;;;;;34.87;33.33;;;31.10;36.40;;;;;;5052469;28;20476;-49
2022/03/28 12:32:58;;;;;;;31.05;29.55;;;31.20;36.00;;;;;;5051156;28;20527;-55
2022/03/28 12:35:25;;;;;;;30.33;28.93;;;31.20;35.90;;;;;;5051669;28;20466;-50
2022/03/28 12:38:04;;;;;;;36.07;34.57;;;31.30;35.80;;;;;;5052391;28;20479;-49
2022/03/28 12:40:32;;;;;;;36.20;34.50;;;31.40;35.50;;;;;;5052656;28;20819;-48